TimeEDT,TemperatureF,Dew PointF,Humidity,Sea Level PressureIn,VisibilityMPH,Wind Direction,Wind SpeedMPH,Gust SpeedMPH,PrecipitationIn,Events,Conditions,WindDirDegrees,DateUTC
12:15 AM,53.6,48.2,82,30.10,10.0,Calm,Calm,-,N/A,,Clear,0,2012-11-03 04:15:00
12:35 AM,53.6,50.0,88,30.10,10.0,Calm,Calm,-,N/A,,Clear,0,2012-11-03 04:35:00
12:55 AM,51.8,48.2,88,30.11,10.0,Calm,Calm,-,N/A,,Clear,0,2012-11-03 04:55:00
1:15 AM,53.6,48.2,82,30.10,10.0,Calm,Calm,-,N/A,,Clear,0,2012-11-03 05:15:00
1:35 AM,55.4,50.0,82,30.10,10.0,Calm,Calm,-,N/A,,Clear,0,2012-11-03 05:35:00
1:55 AM,51.8,48.2,88,30.09,10.0,Calm,Calm,-,N/A,,Clear,0,2012-11-03 05:55:00
2:15 AM,51.8,48.2,88,30.09,10.0,Calm,Calm,-,N/A,,Clear,0,2012-11-03 06:15:00
2:35 AM,51.8,48.2,88,30.09,10.0,Calm,Calm,-,N/A,,Clear,0,2012-11-03 06:35:00
2:55 AM,50.0,48.2,94,30.09,10.0,Calm,Calm,-,N/A,,Clear,0,2012-11-03 06:55:00
3:15 AM,51.8,50.0,94,30.09,10.0,Calm,Calm,-,N/A,,Clear,0,2012-11-03 07:15:00
3:35 AM,48.2,48.2,100,30.08,10.0,Calm,Calm,-,N/A,,Clear,0,2012-11-03 07:35:00
3:55 AM,50.0,50.0,100,30.08,10.0,Calm,Calm,-,N/A,,Clear,0,2012-11-03 07:55:00
4:15 AM,50.0,50.0,100,30.08,10.0,Calm,Calm,-,N/A,,Clear,0,2012-11-03 08:15:00
4:35 AM,50.0,48.2,94,30.09,10.0,Calm,Calm,-,N/A,,Clear,0,2012-11-03 08:35:00
4:55 AM,50.0,48.2,94,30.08,7.0,Calm,Calm,-,N/A,,Clear,0,2012-11-03 08:55:00
5:15 AM,50.0,48.2,94,30.09,10.0,Calm,Calm,-,N/A,,Clear,0,2012-11-03 09:15:00
5:35 AM,50.0,48.2,94,30.10,10.0,Calm,Calm,-,N/A,,Clear,0,2012-11-03 09:35:00
5:55 AM,48.2,48.2,100,30.10,9.0,Calm,Calm,-,N/A,,Clear,0,2012-11-03 09:55:00
6:15 AM,50.0,48.2,94,30.11,8.0,Calm,Calm,-,N/A,,Clear,0,2012-11-03 10:15:00
6:35 AM,50.0,50.0,100,30.11,10.0,Calm,Calm,-,N/A,,Clear,0,2012-11-03 10:35:00
6:55 AM,48.2,48.2,100,30.12,0.8,Calm,Calm,-,N/A,,Mist,0,2012-11-03 10:55:00
7:15 AM,50.0,50.0,100,30.12,4.0,Calm,Calm,-,N/A,,Clear,0,2012-11-03 11:15:00
3:35 PM,80.6,55.4,42,30.08,8.0,Calm,Calm,-,N/A,,Partly Cloudy,0,2012-11-03 19:35:00
3:55 PM,80.6,55.4,42,30.08,8.0,Calm,Calm,-,N/A,,Partly Cloudy,0,2012-11-03 19:55:00
4:15 PM,82.4,55.4,39,30.07,7.0,East,3.5,-,N/A,,Partly Cloudy,90,2012-11-03 20:15:00
4:35 PM,80.6,55.4,42,30.07,9.0,WNW,3.5,-,N/A,,Partly Cloudy,300,2012-11-03 20:35:00
4:55 PM,80.6,55.4,42,30.07,10.0,Calm,Calm,-,N/A,,Partly Cloudy,0,2012-11-03 20:55:00
5:15 PM,80.6,53.6,39,30.07,9.0,NE,3.5,-,N/A,,Partly Cloudy,50,2012-11-03 21:15:00
5:35 PM,80.6,53.6,39,30.07,9.0,Calm,Calm,-,N/A,,Partly Cloudy,0,2012-11-03 21:35:00
5:55 PM,78.8,55.4,44,30.07,8.0,Calm,Calm,-,N/A,,Clear,0,2012-11-03 21:55:00
6:15 PM,77.0,57.2,50,30.07,9.0,Calm,Calm,-,N/A,,Clear,0,2012-11-03 22:15:00
6:35 PM,73.4,60.8,65,30.07,10.0,Calm,Calm,-,N/A,,Clear,0,2012-11-03 22:35:00
6:55 PM,71.6,60.8,69,30.08,8.0,Calm,Calm,-,N/A,,Clear,0,2012-11-03 22:55:00
7:15 PM,69.8,60.8,73,30.08,10.0,Calm,Calm,-,N/A,,Clear,0,2012-11-03 23:15:00
7:35 PM,68.0,60.8,78,30.08,10.0,Calm,Calm,-,N/A,,Clear,0,2012-11-03 23:35:00
7:55 PM,66.2,60.8,83,30.08,10.0,Calm,Calm,-,N/A,,Clear,0,2012-11-03 23:55:00
8:15 PM,64.4,57.2,77,30.09,10.0,East,3.5,-,N/A,,Clear,100,2012-11-04 00:15:00
8:35 PM,66.2,57.2,73,30.10,10.0,Calm,Calm,-,N/A,,Clear,0,2012-11-04 00:35:00
8:55 PM,66.2,57.2,73,30.11,10.0,WSW,5.8,-,N/A,,Clear,250,2012-11-04 00:55:00
9:15 PM,66.2,57.2,73,30.11,10.0,Calm,Calm,-,N/A,,Clear,0,2012-11-04 01:15:00
9:35 PM,66.2,57.2,73,30.11,10.0,Calm,Calm,-,N/A,,Clear,0,2012-11-04 01:35:00
9:55 PM,64.4,59.0,83,30.11,10.0,Calm,Calm,-,N/A,,Clear,0,2012-11-04 01:55:00
10:15 PM,62.6,59.0,88,30.12,9.0,Calm,Calm,-,N/A,,Clear,0,2012-11-04 02:15:00
10:35 PM,62.6,57.2,82,30.12,10.0,Calm,Calm,-,N/A,,Clear,0,2012-11-04 02:35:00
10:55 PM,62.6,60.8,94,30.12,9.0,Calm,Calm,-,N/A,,Clear,0,2012-11-04 02:55:00
11:15 PM,62.6,60.8,94,30.12,10.0,Calm,Calm,-,N/A,,Clear,0,2012-11-04 03:15:00
11:35 PM,60.8,60.8,100,30.12,9.0,Calm,Calm,-,N/A,,Clear,0,2012-11-04 03:35:00
11:55 PM,59.0,59.0,100,30.12,7.0,East,3.5,-,N/A,,Clear,100,2012-11-04 03:55:00